Time;durP1;ratioP1;P1;durP2;ratioP2;P2;SDS_P1;SDS_P2;PMS_P1;PMS_P2;Temp;Humidity;BMP_temperature;BMP_pressure;BME280_temperature;BME280_humidity;BME280_pressure;Samples;Min_cycle;Max_cycle;Signal;HPM_P1;HPM_P2
2022/01/20 00:03:42;;;;;;;14.07;2.70;;;3.90;99.90;;;;;;5049851;28;20056;-64
2022/01/20 00:09:19;;;;;;;16.48;2.13;;;4.00;99.90;;;;;;5049989;28;20500;-65
2022/01/20 00:28:15;;;;;;;14.57;2.40;;;3.90;99.90;;;;;;5050106;28;20402;-65
2022/01/20 00:30:51;;;;;;;20.27;2.53;;;3.80;99.90;;;;;;5043079;28;20612;-65
2022/01/20 00:33:32;;;;;;;18.67;2.35;;;3.80;99.90;;;;;;5054156;28;20051;-63
2022/01/20 00:38:46;;;;;;;18.83;2.60;;;3.80;99.90;;;;;;5027876;28;20041;-64
2022/01/20 00:41:15;;;;;;;13.73;2.33;;;3.80;99.90;;;;;;5052947;28;20048;-64
2022/01/20 00:43:43;;;;;;;21.92;2.60;;;3.90;99.90;;;;;;5054521;28;20359;-64
2022/01/20 00:46:10;;;;;;;14.55;2.78;;;3.90;99.90;;;;;;5049105;28;20037;-66
2022/01/20 00:48:35;;;;;;;17.13;2.60;;;3.80;99.90;;;;;;5056672;28;20049;-65
2022/01/20 00:51:01;;;;;;;14.73;2.58;;;3.80;99.90;;;;;;5052401;28;20052;-65
2022/01/20 00:53:26;;;;;;;17.30;2.30;;;3.80;99.90;;;;;;5050851;28;20463;-64
2022/01/20 00:55:52;;;;;;;18.45;2.88;;;3.80;99.90;;;;;;5049480;28;20462;-65
2022/01/20 00:58:18;;;;;;;21.92;2.72;;;3.80;99.90;;;;;;5054712;28;20045;-63
2022/01/20 01:00:43;;;;;;;23.25;3.03;;;3.90;99.90;;;;;;5046998;28;20045;-62
2022/01/20 01:03:09;;;;;;;24.88;2.67;;;4.00;99.90;;;;;;5053586;28;20045;-65
2022/01/20 01:05:42;;;;;;;11.93;1.90;;;4.00;99.90;;;;;;5046960;28;20044;-64
2022/01/20 01:08:11;;;;;;;22.85;2.67;;;4.10;99.90;;;;;;5056255;28;20104;-66
2022/01/20 01:10:39;;;;;;;8.27;1.23;;;4.20;99.90;;;;;;5041843;28;20041;-64
2022/01/20 01:13:11;;;;;;;5.10;1.15;;;4.20;99.90;;;;;;5044763;28;20049;-66
2022/01/20 01:15:45;;;;;;;9.52;1.58;;;4.10;99.90;;;;;;5051241;28;20048;-64
2022/01/20 01:23:37;;;;;;;11.75;2.33;;;3.90;99.90;;;;;;5051362;28;20052;-63
2022/01/20 01:26:05;;;;;;;7.40;1.10;;;3.90;99.90;;;;;;5048466;28;20403;-65
2022/01/20 01:28:32;;;;;;;10.80;1.92;;;3.80;99.90;;;;;;5053219;28;20069;-64
2022/01/20 01:33:49;;;;;;;10.15;1.50;;;3.80;99.90;;;;;;5048987;28;20056;-64
2022/01/20 01:36:18;;;;;;;7.93;1.80;;;3.70;99.90;;;;;;5054493;28;20505;-64
2022/01/20 01:38:44;;;;;;;9.23;1.42;;;3.70;99.90;;;;;;5044340;28;20044;-65
2022/01/20 01:41:13;;;;;;;9.27;2.05;;;3.70;99.90;;;;;;5059951;28;20438;-64
2022/01/20 01:43:43;;;;;;;11.68;1.67;;;3.70;99.90;;;;;;5041086;28;20120;-65
2022/01/20 01:46:11;;;;;;;7.13;1.60;;;3.70;99.90;;;;;;5044006;28;20084;-65
2022/01/20 01:48:41;;;;;;;6.38;1.65;;;3.70;99.90;;;;;;5047552;28;20044;-64
2022/01/20 01:51:08;;;;;;;16.52;1.92;;;3.70;99.90;;;;;;5035751;28;20046;-65
2022/01/20 01:53:34;;;;;;;7.70;1.83;;;3.70;99.90;;;;;;5059715;28;20086;-65
2022/01/20 01:55:59;;;;;;;17.05;1.90;;;3.80;99.90;;;;;;5044249;28;20509;-65
2022/01/20 01:58:25;;;;;;;12.40;2.00;;;3.80;99.90;;;;;;5048857;28;20037;-65
2022/01/20 02:00:51;;;;;;;10.18;1.98;;;3.90;99.90;;;;;;5047678;28;20046;-64
2022/01/20 02:03:17;;;;;;;16.73;1.88;;;3.90;99.90;;;;;;5050800;28;20045;-64
2022/01/20 02:06:22;;;;;;;14.93;2.22;;;4.00;99.90;;;;;;5049929;28;20562;-65
2022/01/20 02:19:19;;;;;;;16.50;2.80;;;4.20;99.90;;;;;;5046336;28;20133;-64
2022/01/20 02:21:49;;;;;;;12.40;2.75;;;4.20;99.90;;;;;;5040102;28;20120;-65
2022/01/20 02:24:16;;;;;;;13.25;1.88;;;4.20;99.90;;;;;;5048225;28;20047;-64
2022/01/20 02:26:41;;;;;;;21.67;3.65;;;3.80;99.90;;;;;;5051056;28;20037;-65
2022/01/20 02:29:07;;;;;;;19.02;2.85;;;3.60;99.90;;;;;;5046201;28;20037;-65
2022/01/20 02:31:33;;;;;;;13.93;3.03;;;3.40;99.90;;;;;;5056278;28;20445;-66
2022/01/20 02:33:59;;;;;;;15.63;2.40;;;3.40;99.90;;;;;;5054937;28;20069;-64
2022/01/20 02:36:25;;;;;;;19.75;3.25;;;3.30;99.90;;;;;;5049053;28;20071;-64
2022/01/20 02:39:04;;;;;;;16.60;2.90;;;3.40;99.90;;;;;;5047759;28;20051;-65
2022/01/20 02:46:58;;;;;;;22.02;3.38;;;3.40;99.90;;;;;;5052361;28;20045;-65
2022/01/20 02:49:24;;;;;;;21.73;3.70;;;3.50;99.90;;;;;;5049300;28;20059;-64
2022/01/20 02:51:54;;;;;;;16.20;3.38;;;3.60;99.90;;;;;;5043342;28;20115;-65
2022/01/20 02:54:21;;;;;;;32.35;3.45;;;3.60;99.90;;;;;;5051261;28;20652;-64
2022/01/20 02:56:46;;;;;;;22.33;3.17;;;3.70;99.90;;;;;;5065418;28;20087;-65
2022/01/20 02:59:12;;;;;;;27.17;4.55;;;3.70;99.90;;;;;;5048445;28;20132;-65
2022/01/20 03:01:38;;;;;;;24.90;3.92;;;3.80;99.90;;;;;;5044645;28;20421;-65
2022/01/20 03:04:04;;;;;;;20.27;3.97;;;4.00;99.90;;;;;;5064520;28;20068;-65
2022/01/20 03:06:30;;;;;;;16.67;2.95;;;4.00;99.90;;;;;;5049705;28;20041;-65
2022/01/20 03:08:55;;;;;;;23.27;3.72;;;4.00;99.90;;;;;;5053293;28;20055;-65
2022/01/20 03:11:21;;;;;;;32.78;3.92;;;3.90;99.90;;;;;;5046271;28;20040;-65
2022/01/20 03:13:46;;;;;;;23.05;3.90;;;3.90;99.90;;;;;;5040123;28;20488;-64
2022/01/20 03:16:12;;;;;;;24.15;3.38;;;3.80;99.90;;;;;;5044963;28;20040;-65
2022/01/20 03:18:38;;;;;;;22.73;3.60;;;3.80;99.90;;;;;;5048726;28;20045;-65
2022/01/20 03:21:04;;;;;;;25.98;4.15;;;3.70;99.90;;;;;;5047819;28;20049;-63
2022/01/20 03:23:29;;;;;;;36.92;4.53;;;3.70;99.90;;;;;;5050839;28;20033;-65
2022/01/20 03:25:55;;;;;;;29.80;3.80;;;3.60;99.90;;;;;;5048375;28;20483;-64
2022/01/20 03:28:20;;;;;;;23.27;4.53;;;3.60;99.90;;;;;;5048066;28;20490;-65
2022/01/20 03:30:46;;;;;;;30.67;3.92;;;3.60;99.90;;;;;;5054416;28;20049;-65
2022/01/20 03:33:12;;;;;;;21.92;3.75;;;3.50;99.90;;;;;;5042418;28;20041;-65
2022/01/20 03:35:40;;;;;;;18.58;3.30;;;3.60;99.90;;;;;;5051854;28;20048;-65
2022/01/20 03:38:05;;;;;;;27.67;4.05;;;3.60;99.90;;;;;;5067735;28;20199;-64
2022/01/20 03:40:31;;;;;;;13.02;3.00;;;3.60;99.90;;;;;;5048999;28;20441;-63
2022/01/20 03:42:58;;;;;;;16.25;2.03;;;3.70;99.90;;;;;;5055340;28;20033;-63
2022/01/20 03:45:27;;;;;;;13.20;2.47;;;3.70;99.90;;;;;;5047541;28;20049;-64
2022/01/20 03:47:55;;;;;;;14.63;2.97;;;3.70;99.90;;;;;;5055145;28;20056;-64
2022/01/20 03:53:07;;;;;;;19.35;2.90;;;3.60;99.90;;;;;;5045360;28;20045;-64
2022/01/20 03:55:32;;;;;;;16.88;2.50;;;3.50;99.90;;;;;;5057041;28;20060;-63
2022/01/20 03:57:58;;;;;;;8.02;1.83;;;3.40;99.90;;;;;;5059859;28;20179;-64
2022/01/20 04:00:24;;;;;;;7.80;1.88;;;3.30;99.90;;;;;;5050565;28;20075;-64
2022/01/20 04:02:50;;;;;;;14.30;2.17;;;3.30;99.90;;;;;;5053013;28;20494;-65
2022/01/20 04:05:15;;;;;;;15.80;2.67;;;3.30;99.90;;;;;;5047258;28;20048;-64
2022/01/20 04:07:41;;;;;;;9.07;2.17;;;3.30;99.90;;;;;;5048361;28;20041;-63
2022/01/20 04:10:07;;;;;;;10.70;2.17;;;3.30;99.90;;;;;;5059489;28;20471;-63
2022/01/20 04:12:33;;;;;;;18.90;3.33;;;3.30;99.90;;;;;;5053764;28;20064;-63
2022/01/20 04:15:05;;;;;;;11.55;2.30;;;3.30;99.90;;;;;;5043105;28;20479;-64
2022/01/20 04:17:31;;;;;;;23.15;2.72;;;3.30;99.90;;;;;;5057915;28;20044;-63
2022/01/20 04:19:57;;;;;;;16.38;2.88;;;3.40;99.90;;;;;;5045833;28;20100;-63
2022/01/20 04:22:24;;;;;;;15.35;2.58;;;3.40;99.90;;;;;;5049893;28;20394;-63
2022/01/20 04:24:50;;;;;;;15.43;2.63;;;3.50;99.90;;;;;;5047570;28;20055;-64
2022/01/20 04:27:16;;;;;;;18.40;2.78;;;3.50;99.90;;;;;;5054663;28;20550;-64
2022/01/20 04:29:41;;;;;;;9.15;2.30;;;3.50;99.90;;;;;;5049031;28;20045;-64
2022/01/20 04:32:07;;;;;;;17.00;2.38;;;3.50;99.90;;;;;;5034510;28;20461;-66
2022/01/20 04:34:33;;;;;;;15.23;2.60;;;3.50;99.90;;;;;;5048467;28;20049;-64
2022/01/20 04:37:00;;;;;;;17.30;2.95;;;3.50;99.90;;;;;;5057114;28;20413;-65
2022/01/20 04:39:30;;;;;;;12.55;2.60;;;3.60;99.90;;;;;;5047545;28;20041;-65
2022/01/20 04:41:56;;;;;;;22.65;3.28;;;3.60;99.90;;;;;;5047814;28;20033;-65
2022/01/20 04:57:47;;;;;;;10.38;2.60;;;3.20;99.90;;;;;;5060306;28;20044;-65
2022/01/20 05:00:14;;;;;;;15.77;3.15;;;3.20;99.90;;;;;;5046301;28;20487;-66
2022/01/20 05:02:39;;;;;;;11.38;1.83;;;3.10;99.90;;;;;;5046063;28;20041;-65
2022/01/20 05:05:08;;;;;;;15.77;3.40;;;3.10;99.90;;;;;;5041262;28;20091;-65
2022/01/20 05:07:33;;;;;;;;;;;3.10;99.90;;;;;;5049842;28;20045;-65
2022/01/20 05:09:59;;;;;;;7.60;2.13;;;3.00;99.90;;;;;;5045197;28;19966;-64
2022/01/20 05:12:35;;;;;;;5.80;1.30;;;3.00;99.90;;;;;;5049257;28;20048;-66
2022/01/20 05:15:00;;;;;;;11.82;1.63;;;3.00;99.90;;;;;;5052666;28;20426;-64
2022/01/20 05:17:26;;;;;;;6.97;1.48;;;2.90;99.90;;;;;;5047292;28;20082;-64
2022/01/20 05:19:52;;;;;;;5.22;1.30;;;2.80;99.90;;;;;;5038937;28;20057;-64
2022/01/20 05:22:17;;;;;;;7.80;1.45;;;2.70;99.90;;;;;;5043780;28;20130;-63
2022/01/20 05:24:44;;;;;;;10.77;1.98;;;2.70;99.90;;;;;;5044129;28;20045;-64
2022/01/20 05:27:10;;;;;;;6.43;1.50;;;2.60;99.90;;;;;;5050326;28;20483;-65
2022/01/20 05:29:36;;;;;;;8.52;2.25;;;2.50;99.90;;;;;;5046884;28;20052;-65
2022/01/20 05:32:01;;;;;;;13.90;2.17;;;2.50;99.90;;;;;;5048466;28;20044;-66
2022/01/20 05:34:27;;;;;;;19.52;2.33;;;2.50;99.90;;;;;;5049900;28;20047;-65
2022/01/20 05:36:53;;;;;;;21.80;3.47;;;2.50;99.90;;;;;;5050274;28;20037;-65
2022/01/20 05:39:18;;;;;;;23.15;3.05;;;2.40;99.90;;;;;;5038193;28;20474;-65
2022/01/20 05:41:45;;;;;;;17.17;3.33;;;2.40;99.90;;;;;;5045818;28;20041;-65
2022/01/20 05:44:11;;;;;;;16.60;2.85;;;2.40;99.90;;;;;;5042827;28;20163;-66
2022/01/20 05:46:43;;;;;;;19.30;2.78;;;2.50;99.90;;;;;;5064127;28;20051;-63
2022/01/20 05:49:09;;;;;;;17.92;3.03;;;2.60;99.90;;;;;;5036892;28;20037;-64
2022/01/20 05:51:37;;;;;;;17.52;3.55;;;2.60;99.90;;;;;;5043084;28;20085;-64
2022/01/20 05:54:04;;;;;;;17.17;2.90;;;2.60;99.90;;;;;;5046575;28;20033;-63
2022/01/20 05:56:30;;;;;;;17.25;3.47;;;2.60;99.90;;;;;;5043912;28;20045;-65
2022/01/20 05:58:56;;;;;;;17.05;2.72;;;2.60;99.90;;;;;;5043235;28;20045;-66
2022/01/20 06:01:21;;;;;;;14.98;2.65;;;2.70;99.90;;;;;;5041895;28;20037;-64
2022/01/20 06:03:47;;;;;;;17.83;2.55;;;2.60;99.90;;;;;;5038953;28;20411;-67
2022/01/20 06:06:13;;;;;;;17.90;3.20;;;2.70;99.90;;;;;;5043196;28;20044;-66
2022/01/20 06:08:41;;;;;;;23.85;3.33;;;2.70;99.90;;;;;;5029331;28;20509;-64
2022/01/20 06:11:08;;;;;;;20.70;3.85;;;2.80;99.90;;;;;;5050234;28;20048;-65
2022/01/20 06:13:34;;;;;;;17.63;3.60;;;2.80;99.90;;;;;;5045777;28;20113;-64
2022/01/20 06:16:00;;;;;;;16.50;3.60;;;2.90;99.90;;;;;;5045327;28;20550;-65
2022/01/20 06:18:26;;;;;;;18.50;3.13;;;2.90;99.90;;;;;;5052044;28;20041;-65
2022/01/20 06:20:52;;;;;;;18.27;3.00;;;3.00;99.90;;;;;;5043256;28;20053;-66
2022/01/20 06:23:18;;;;;;;20.80;3.33;;;3.10;99.90;;;;;;5052901;28;20128;-66
2022/01/20 06:25:44;;;;;;;13.70;2.63;;;3.10;99.90;;;;;;5045583;28;20044;-66
2022/01/20 06:28:10;;;;;;;19.20;3.22;;;3.10;99.90;;;;;;5045277;28;20506;-65
2022/01/20 06:30:37;;;;;;;11.02;2.38;;;3.10;99.90;;;;;;5053739;28;20325;-64
2022/01/20 06:33:03;;;;;;;20.48;3.25;;;2.90;99.90;;;;;;5044314;28;20034;-65
2022/01/20 06:35:31;;;;;;;18.05;2.75;;;2.60;99.90;;;;;;5059410;28;20091;-65
2022/01/20 06:37:56;;;;;;;21.73;3.40;;;2.40;99.90;;;;;;5059021;28;20042;-66
2022/01/20 06:40:22;;;;;;;12.25;2.78;;;2.30;99.90;;;;;;5050473;28;20537;-65
2022/01/20 06:42:48;;;;;;;21.10;2.65;;;2.30;99.90;;;;;;5050810;28;20099;-65
2022/01/20 06:45:15;;;;;;;11.88;2.38;;;2.20;99.90;;;;;;5051186;28;20063;-65
2022/01/20 06:47:41;;;;;;;11.75;2.00;;;2.10;99.90;;;;;;5085190;28;20048;-65
2022/01/20 06:50:09;;;;;;;14.73;2.40;;;2.10;99.90;;;;;;5060234;28;20063;-65
2022/01/20 06:52:36;;;;;;;20.70;2.50;;;2.20;99.90;;;;;;5051536;28;20407;-64
2022/01/20 06:55:10;;;;;;;14.18;2.58;;;2.10;99.90;;;;;;5053781;28;20433;-64
2022/01/20 06:57:36;;;;;;;10.63;2.25;;;2.20;99.90;;;;;;5051041;28;21689;-65
2022/01/20 07:00:12;;;;;;;11.30;2.55;;;2.20;99.90;;;;;;5055043;28;20410;-64
2022/01/20 07:02:38;;;;;;;12.75;2.40;;;2.20;99.90;;;;;;5045762;28;20049;-63
2022/01/20 07:05:06;;;;;;;16.58;3.22;;;2.20;99.90;;;;;;5041105;28;20037;-65
2022/01/20 07:07:32;;;;;;;12.38;2.83;;;2.20;99.90;;;;;;5052637;28;20037;-65
2022/01/20 07:09:58;;;;;;;19.98;2.42;;;2.20;99.90;;;;;;5051746;28;20458;-65
2022/01/20 07:12:24;;;;;;;24.15;3.70;;;2.30;99.90;;;;;;5049684;28;20045;-67
2022/01/20 07:14:49;;;;;;;15.40;2.47;;;2.30;99.90;;;;;;5052692;28;20509;-64
2022/01/20 07:17:15;;;;;;;17.80;3.10;;;2.40;99.90;;;;;;5047871;28;20483;-64
2022/01/20 07:19:41;;;;;;;16.55;3.40;;;2.50;99.90;;;;;;5049212;28;20072;-66
2022/01/20 07:22:07;;;;;;;19.73;3.70;;;2.50;99.90;;;;;;5043739;28;20510;-66
2022/01/20 07:24:32;;;;;;;12.20;3.03;;;2.50;99.90;;;;;;5043880;28;20446;-65
2022/01/20 07:26:58;;;;;;;14.95;2.70;;;2.60;99.90;;;;;;5044706;28;20503;-65
2022/01/20 07:29:25;;;;;;;23.05;3.00;;;2.60;99.90;;;;;;5048256;28;20037;-64
2022/01/20 07:31:51;;;;;;;14.48;2.33;;;2.50;99.90;;;;;;5053910;28;20049;-65
2022/01/20 07:34:17;;;;;;;19.48;2.95;;;2.50;99.90;;;;;;5053681;28;20039;-66
2022/01/20 07:36:42;;;;;;;20.33;3.03;;;2.50;99.90;;;;;;5053573;28;20037;-65
2022/01/20 07:39:08;;;;;;;22.23;2.75;;;2.50;99.90;;;;;;5054656;28;20363;-65
2022/01/20 07:41:33;;;;;;;16.52;2.20;;;2.50;99.90;;;;;;5053870;28;20036;-65
2022/01/20 07:43:59;;;;;;;18.42;2.88;;;2.40;99.90;;;;;;5053905;28;20064;-64
2022/01/20 07:46:25;;;;;;;25.42;3.03;;;2.40;99.90;;;;;;5040825;28;20041;-65
2022/01/20 07:48:50;;;;;;;8.18;1.45;;;2.50;99.90;;;;;;5034074;28;20506;-65
2022/01/20 07:51:17;;;;;;;7.65;2.03;;;2.50;99.90;;;;;;5082446;28;20147;-65
2022/01/20 07:53:43;;;;;;;13.93;2.95;;;2.40;99.90;;;;;;5025756;28;20120;-65
2022/01/20 07:56:09;;;;;;;9.82;1.90;;;2.20;99.90;;;;;;5036890;28;20124;-64
2022/01/20 07:58:35;;;;;;;14.25;2.90;;;2.10;99.90;;;;;;5049820;28;20053;-64
2022/01/20 08:01:01;;;;;;;20.92;2.55;;;2.00;99.90;;;;;;5052886;28;20043;-64
2022/01/20 08:03:27;;;;;;;15.40;2.47;;;2.00;99.90;;;;;;5063202;28;20045;-63
2022/01/20 08:05:52;;;;;;;15.90;2.15;;;2.00;99.90;;;;;;5048025;28;20414;-63
2022/01/20 08:08:18;;;;;;;21.20;3.17;;;1.90;99.90;;;;;;5049660;28;20043;-63
2022/01/20 08:10:44;;;;;;;21.83;2.80;;;2.00;99.90;;;;;;5049568;28;20094;-66
2022/01/20 08:13:09;;;;;;;14.18;3.38;;;2.10;99.90;;;;;;5048620;28;20041;-65
2022/01/20 08:15:35;;;;;;;25.15;3.78;;;2.00;99.90;;;;;;5046393;28;20068;-65
2022/01/20 08:18:00;;;;;;;14.40;2.72;;;2.00;99.90;;;;;;5043186;28;20394;-64
2022/01/20 08:20:26;;;;;;;16.13;2.67;;;2.10;99.90;;;;;;5051177;28;20127;-66
2022/01/20 08:22:52;;;;;;;19.35;3.15;;;2.20;99.90;;;;;;5058887;28;20036;-64
2022/01/20 08:25:19;;;;;;;16.13;2.38;;;2.30;99.90;;;;;;5057182;28;20120;-64
2022/01/20 08:27:47;;;;;;;14.77;2.72;;;2.50;99.90;;;;;;5036028;28;20045;-64
2022/01/20 08:30:16;;;;;;;9.47;2.10;;;2.50;99.90;;;;;;5044590;28;20048;-62
2022/01/20 08:32:43;;;;;;;13.52;2.50;;;2.60;99.90;;;;;;5038251;28;20497;-64
2022/01/20 08:35:09;;;;;;;15.32;3.40;;;2.70;99.90;;;;;;5047826;28;20383;-64
2022/01/20 08:37:40;;;;;;;9.88;2.42;;;3.80;99.90;;;;;;5049669;28;20098;-63
2022/01/20 08:40:09;;;;;;;16.30;2.92;;;2.90;99.90;;;;;;5051808;28;20413;-65
2022/01/20 08:42:35;;;;;;;8.05;1.85;;;3.00;99.90;;;;;;5046564;28;20078;-65
2022/01/20 08:45:01;;;;;;;6.43;1.50;;;3.10;99.90;;;;;;5048510;28;20419;-64
2022/01/20 08:47:27;;;;;;;6.18;1.70;;;3.20;99.90;;;;;;5046930;28;20120;-62
2022/01/20 08:49:53;;;;;;;5.00;1.60;;;3.30;99.90;;;;;;5047994;28;20033;-65
2022/01/20 08:52:21;;;;;;;14.07;2.80;;;3.20;99.90;;;;;;5042225;28;20059;-64
2022/01/20 08:54:47;;;;;;;21.88;2.47;;;2.80;99.90;;;;;;5051208;28;22002;-63
2022/01/20 08:57:16;;;;;;;11.32;1.27;;;2.60;99.90;;;;;;5038890;28;20037;-64
2022/01/20 08:59:42;;;;;;;8.10;1.75;;;2.40;99.90;;;;;;5039652;28;20615;-64
2022/01/20 09:02:11;;;;;;;6.57;1.45;;;2.30;99.90;;;;;;5046565;28;20057;-64
2022/01/20 09:04:38;;;;;;;8.30;1.83;;;2.20;99.90;;;;;;5045615;28;20045;-63
2022/01/20 09:07:05;;;;;;;6.28;1.38;;;2.20;99.90;;;;;;5046898;28;20033;-63
2022/01/20 09:09:33;;;;;;;9.57;1.77;;;2.20;99.90;;;;;;5058593;28;20037;-64
2022/01/20 09:17:34;;;;;;;12.20;2.50;;;2.80;99.90;;;;;;5043625;28;20056;-65
2022/01/20 09:20:00;;;;;;;13.50;1.70;;;2.60;99.90;;;;;;5048615;28;20376;-64
2022/01/20 09:22:29;;;;;;;12.55;1.92;;;2.30;99.90;;;;;;5051413;28;20056;-64
2022/01/20 09:24:54;;;;;;;13.50;1.80;;;2.20;99.90;;;;;;5084839;28;20058;-64
2022/01/20 09:27:20;;;;;;;14.27;1.88;;;2.10;99.90;;;;;;5045929;28;20037;-65
2022/01/20 09:29:46;;;;;;;17.05;2.80;;;2.10;99.90;;;;;;5051011;28;20095;-64
2022/01/20 09:32:12;;;;;;;17.70;2.33;;;2.00;99.90;;;;;;5050974;28;20037;-64
2022/01/20 09:34:42;;;;;;;18.35;2.40;;;2.00;99.90;;;;;;5048509;28;20749;-63
2022/01/20 09:37:07;;;;;;;10.82;2.10;;;2.20;99.90;;;;;;5049489;28;20095;-64
2022/01/20 09:39:34;;;;;;;15.73;3.05;;;2.50;99.90;;;;;;5051931;28;20490;-63
2022/01/20 09:42:00;;;;;;;17.55;2.85;;;2.70;99.90;;;;;;5031996;28;20037;-63
2022/01/20 09:44:26;;;;;;;12.98;2.30;;;3.10;99.90;;;;;;5051485;28;20502;-63
2022/01/20 09:46:52;;;;;;;11.30;3.20;;;3.20;99.90;;;;;;5040434;28;20088;-63
2022/01/20 09:49:17;;;;;;;13.80;3.05;;;3.50;99.90;;;;;;5058648;28;20029;-65
2022/01/20 09:51:43;;;;;;;16.95;3.13;;;3.90;99.90;;;;;;5052795;28;20575;-65
2022/01/20 09:54:09;;;;;;;17.67;2.30;;;4.00;99.90;;;;;;5055042;28;20037;-62
2022/01/20 09:56:36;;;;;;;22.15;3.78;;;4.00;99.90;;;;;;5055068;28;20049;-64
2022/01/20 09:59:02;;;;;;;14.95;2.35;;;3.90;99.90;;;;;;5058575;28;20048;-64
2022/01/20 10:01:45;;;;;;;20.88;3.13;;;3.70;99.90;;;;;;5047550;28;20041;-64
2022/01/20 10:04:22;;;;;;;11.38;2.88;;;3.60;99.90;;;;;;5060752;28;20053;-63
2022/01/20 10:07:06;;;;;;;17.13;2.70;;;3.90;99.90;;;;;;5051440;28;20049;-63
2022/01/20 10:09:36;;;;;;;19.63;3.55;;;4.20;99.90;;;;;;5048506;28;20029;-64
2022/01/20 10:12:03;;;;;;;28.63;3.83;;;4.20;99.90;;;;;;5050687;28;20041;-62
2022/01/20 10:14:41;;;;;;;19.15;2.95;;;4.30;99.90;;;;;;5056783;28;20076;-64
2022/01/20 10:17:19;;;;;;;21.60;3.65;;;4.20;99.90;;;;;;5052232;28;20044;-64
2022/01/20 10:19:45;;;;;;;8.45;2.47;;;4.10;99.90;;;;;;5050257;28;20096;-67
2022/01/20 10:22:17;;;;;;;20.23;3.17;;;4.20;99.90;;;;;;5046079;28;20044;-65
2022/01/20 10:24:58;;;;;;;13.13;2.42;;;4.20;99.90;;;;;;5049176;28;20079;-64
2022/01/20 10:27:24;;;;;;;16.10;3.20;;;4.10;99.90;;;;;;5049217;28;20048;-65
2022/01/20 10:30:01;;;;;;;18.70;3.20;;;4.10;99.90;;;;;;5046404;28;20041;-64
2022/01/20 10:32:37;;;;;;;14.38;2.95;;;4.10;99.90;;;;;;5050246;28;20091;-61
2022/01/20 10:35:04;;;;;;;11.80;2.80;;;4.10;99.90;;;;;;5050835;28;20048;-63
2022/01/20 10:37:30;;;;;;;13.73;3.55;;;4.10;99.90;;;;;;5039669;28;20033;-64
2022/01/20 10:40:06;;;;;;;15.43;2.97;;;4.70;99.90;;;;;;5056056;28;20120;-65
2022/01/20 10:42:43;;;;;;;15.82;3.05;;;4.10;99.90;;;;;;5052133;28;20420;-65
2022/01/20 10:45:19;;;;;;;17.38;2.67;;;4.20;99.90;;;;;;5067749;28;20049;-65
2022/01/20 10:47:49;;;;;;;21.98;4.00;;;4.20;99.90;;;;;;5052195;28;20049;-65
2022/01/20 10:50:18;;;;;;;15.85;2.50;;;4.20;99.90;;;;;;5051360;28;20090;-64
2022/01/20 10:52:44;;;;;;;8.77;2.10;;;4.20;99.90;;;;;;5054503;28;20178;-64
2022/01/20 10:55:27;;;;;;;11.70;2.45;;;4.10;99.90;;;;;;5051828;28;20095;-66
2022/01/20 10:57:55;;;;;;;15.27;2.53;;;4.10;99.90;;;;;;5049855;28;20063;-65
2022/01/20 11:00:23;;;;;;;13.45;2.67;;;4.00;99.90;;;;;;5048383;28;20345;-64
2022/01/20 11:02:54;;;;;;;11.27;2.80;;;4.00;99.90;;;;;;5051993;28;20059;-65
2022/01/20 11:05:21;;;;;;;14.70;2.65;;;4.00;99.90;;;;;;5052854;28;20131;-65
2022/01/20 11:07:48;;;;;;;13.65;2.47;;;4.10;99.90;;;;;;5048244;28;20478;-66
2022/01/20 11:10:15;;;;;;;13.45;2.13;;;4.20;99.90;;;;;;5051422;28;20046;-65
2022/01/20 11:12:42;;;;;;;8.77;1.85;;;4.30;99.90;;;;;;5049307;28;20056;-65
2022/01/20 11:15:11;;;;;;;13.10;2.58;;;4.30;99.90;;;;;;5058399;28;20397;-65
2022/01/20 11:17:40;;;;;;;24.67;3.00;;;4.30;99.90;;;;;;5048626;28;20037;-65
2022/01/20 11:20:21;;;;;;;10.40;2.80;;;4.20;99.90;;;;;;5052220;28;20111;-64
2022/01/20 11:23:09;;;;;;;26.88;3.70;;;4.60;99.90;;;;;;5049282;28;20464;-65
2022/01/20 11:25:38;;;;;;;18.45;3.90;;;4.10;99.90;;;;;;5056332;28;20111;-65
2022/01/20 11:28:19;;;;;;;15.48;3.33;;;4.10;99.90;;;;;;5054526;28;20498;-66
2022/01/20 11:31:05;;;;;;;15.40;2.53;;;4.10;99.90;;;;;;5049247;28;20817;-65
2022/01/20 11:33:38;;;;;;;19.20;3.47;;;4.10;99.90;;;;;;5052698;28;20044;-65
2022/01/20 11:36:07;;;;;;;33.08;3.65;;;4.20;99.90;;;;;;5049974;28;20040;-64
2022/01/20 11:38:45;;;;;;;24.35;3.50;;;4.30;99.90;;;;;;5030755;28;20079;-63
2022/01/20 11:41:16;;;;;;;18.10;3.13;;;4.40;99.90;;;;;;5045958;28;20043;-65
2022/01/20 11:43:50;;;;;;;18.42;2.55;;;4.30;99.90;;;;;;5082175;28;20049;-64
2022/01/20 11:46:18;;;;;;;22.77;4.18;;;4.20;99.90;;;;;;5043372;28;20096;-65
2022/01/20 11:49:00;;;;;;;13.52;2.20;;;4.10;99.90;;;;;;5048495;28;20123;-64
2022/01/20 11:51:49;;;;;;;15.23;3.00;;;4.00;99.90;;;;;;5051242;28;20136;-64
2022/01/20 11:54:32;;;;;;;12.82;2.50;;;3.90;99.90;;;;;;5039873;28;20048;-65
2022/01/20 11:57:12;;;;;;;17.13;2.78;;;3.90;99.90;;;;;;5052440;28;20047;-67
2022/01/20 11:59:46;;;;;;;11.23;2.65;;;3.90;99.90;;;;;;5047116;28;20111;-66
2022/01/20 12:02:36;;;;;;;17.55;3.13;;;4.10;99.90;;;;;;5040041;28;20056;-67
2022/01/20 12:05:18;;;;;;;25.30;3.60;;;4.20;99.90;;;;;;5045337;28;20057;-64
2022/01/20 12:07:44;;;;;;;17.42;3.55;;;4.20;99.90;;;;;;5041147;28;20045;-63
2022/01/20 12:10:13;;;;;;;20.20;2.42;;;4.10;99.90;;;;;;5038548;28;20041;-63
2022/01/20 12:12:40;;;;;;;15.63;2.17;;;4.00;99.90;;;;;;5040857;28;20140;-64
2022/01/20 12:15:14;;;;;;;11.05;1.90;;;4.10;99.90;;;;;;5043666;28;20176;-64
2022/01/20 12:17:51;;;;;;;13.70;1.83;;;3.80;99.90;;;;;;5049538;28;20494;-63
2022/01/20 12:20:17;;;;;;;19.35;2.83;;;3.70;99.90;;;;;;5061881;28;20052;-66
2022/01/20 12:22:45;;;;;;;9.98;1.80;;;3.70;99.90;;;;;;5045395;28;20064;-65
2022/01/20 12:25:27;;;;;;;24.20;2.87;;;3.90;99.90;;;;;;5041134;28;20043;-64
2022/01/20 12:28:05;;;;;;;13.32;2.30;;;4.00;99.90;;;;;;5046334;28;20041;-64
2022/01/20 12:30:32;;;;;;;14.15;2.72;;;4.00;99.90;;;;;;5049644;28;20044;-67
2022/01/20 12:32:59;;;;;;;16.55;2.13;;;4.20;99.90;;;;;;5049254;28;20507;-65
2022/01/20 12:35:33;;;;;;;12.27;2.35;;;4.20;99.90;;;;;;5048018;28;20080;-64
2022/01/20 12:37:58;;;;;;;22.65;2.55;;;4.20;99.90;;;;;;5039813;28;20040;-63
2022/01/20 12:40:24;;;;;;;14.95;2.70;;;4.20;99.90;;;;;;5052150;28;20037;-64
2022/01/20 12:42:50;;;;;;;13.85;3.10;;;4.20;99.90;;;;;;5045306;28;20406;-64
2022/01/20 12:48:17;;;;;;;11.75;2.42;;;4.20;99.90;;;;;;5038431;28;20457;-64
2022/01/20 12:51:16;;;;;;;12.75;2.42;;;4.30;99.90;;;;;;5075408;28;20072;-63
2022/01/20 12:53:54;;;;;;;17.10;2.83;;;4.40;99.90;;;;;;5048938;28;20088;-64
2022/01/20 12:56:29;;;;;;;12.20;2.38;;;4.40;99.90;;;;;;5050827;28;20466;-62
2022/01/20 12:58:55;;;;;;;24.00;3.67;;;4.50;99.90;;;;;;5058988;28;20095;-64
2022/01/20 13:01:22;;;;;;;15.93;3.30;;;4.50;99.90;;;;;;5048696;28;20399;-64
2022/01/20 13:03:48;;;;;;;17.73;3.22;;;4.60;99.90;;;;;;5044579;28;20487;-65
2022/01/20 13:06:25;;;;;;;10.73;2.15;;;4.70;99.90;;;;;;5054071;28;20116;-62
2022/01/20 13:08:56;;;;;;;9.48;2.20;;;4.70;99.90;;;;;;5045073;28;20485;-64
2022/01/20 13:11:29;;;;;;;17.52;2.83;;;4.40;99.90;;;;;;5046931;28;20494;-64
2022/01/20 13:13:54;;;;;;;12.75;2.40;;;4.10;99.90;;;;;;5042236;28;20536;-65
2022/01/20 13:16:20;;;;;;;6.18;1.67;;;3.90;99.90;;;;;;5053952;28;20029;-64
2022/01/20 13:18:57;;;;;;;4.93;1.02;;;3.70;99.90;;;;;;5044401;28;20124;-62
2022/01/20 13:21:46;;;;;;;3.15;0.95;;;3.60;99.90;;;;;;5034337;28;20041;-63
2022/01/20 13:24:17;;;;;;;3.35;0.93;;;3.50;99.90;;;;;;5041180;28;20517;-67
2022/01/20 13:26:50;;;;;;;9.27;2.22;;;3.40;99.90;;;;;;5047602;28;20064;-65
2022/01/20 13:29:17;;;;;;;7.10;1.40;;;3.40;99.90;;;;;;5041669;28;20052;-66
2022/01/20 13:31:43;;;;;;;17.17;1.73;;;3.70;99.90;;;;;;5037616;28;20357;-65
2022/01/20 13:34:15;;;;;;;9.50;1.67;;;3.50;99.90;;;;;;5029888;28;20103;-65
2022/01/20 13:36:47;;;;;;;9.20;1.95;;;3.60;99.90;;;;;;5073976;28;20060;-65
2022/01/20 13:39:14;;;;;;;9.90;2.38;;;3.70;99.90;;;;;;5043791;28;20099;-63
2022/01/20 13:41:41;;;;;;;5.85;1.73;;;3.70;99.90;;;;;;5033145;28;20049;-65
2022/01/20 13:47:07;;;;;;;6.10;1.60;;;3.60;99.90;;;;;;5046308;28;20064;-64
2022/01/20 13:49:33;;;;;;;19.00;1.83;;;3.50;99.90;;;;;;5045030;28;20472;-64
2022/01/20 13:52:09;;;;;;;8.05;1.98;;;3.50;99.90;;;;;;5046009;28;20734;-64
2022/01/20 13:54:37;;;;;;;5.15;1.42;;;3.50;99.90;;;;;;5043928;28;20049;-64
2022/01/20 13:57:02;;;;;;;7.82;2.03;;;3.60;99.90;;;;;;5048068;28;20409;-66
2022/01/20 13:59:28;;;;;;;11.52;1.67;;;3.60;99.90;;;;;;5042557;28;20044;-65
2022/01/20 14:01:54;;;;;;;13.85;1.65;;;3.70;99.90;;;;;;5029906;28;20156;-65
2022/01/20 14:04:19;;;;;;;16.17;2.92;;;3.70;99.90;;;;;;5045501;28;20128;-65
2022/01/20 14:06:45;;;;;;;18.13;2.85;;;3.80;99.90;;;;;;5036649;28;20049;-65
2022/01/20 14:09:10;;;;;;;12.18;3.03;;;3.80;99.90;;;;;;5039896;28;20379;-63
2022/01/20 14:11:36;;;;;;;14.27;3.17;;;3.90;99.90;;;;;;5052144;28;20128;-64